Wednesday, January 17, 2018, 7:13 PM EST
Back to Local

K1P1, Plymouth, Plymouth Municipal Airport

Location: Plymouth, NH, United States Lat: 43.779
Local Time: 7:13 PM EST ( 0:13 GMT) Lon: -71.754
Time Zone: US/Eastern Elev: 505 ft

Show me the last for .
Show Decoded

2018-01-17 19:07 METAR K1P1 180015Z AUTO 00000KT 4SM -SN SCT010 SCT027 BKN038 M04/M04 A3007 RMK
                 AO2 T10361040 =
2018-01-17 18:55 METAR K1P1 172355Z AUTO 00000KT 5SM -SN SCT010 BKN025 OVC095 M03/M03 A3008 RMK
                 AO2 60001 T10301032 11016 21030 =
2018-01-17 18:27 METAR K1P1 172335Z AUTO 00000KT 2 1/2SM -SN BKN010 BKN018 OVC095 M03/M03 A3009
                 RMK AO2 VIS 2V4 T10281031 =
2018-01-17 18:06 METAR K1P1 172315Z AUTO 00000KT 2 1/2SM -SN SCT010 BKN016 OVC036 M02/M03 A3009
                 RMK AO2 T10251028 =
2018-01-17 17:55 METAR K1P1 172255Z AUTO 00000KT 2 1/2SM -SN BKN010 OVC017 M02/M03 A3010 RMK AO2
                 P0001 T10231028 =
2018-01-17 17:28 METAR K1P1 172235Z AUTO 00000KT 1 3/4SM -SN OVC008 M02/M03 A3010 RMK AO2 P0001
                 T10221028 =
2018-01-17 17:08 METAR K1P1 172215Z AUTO 00000KT 1 1/4SM SN OVC008 M02/M03 A3011 RMK AO2 P0001
                 T10221028 =
2018-01-17 16:55 METAR K1P1 172155Z AUTO 00000KT 1SM -SN OVC012 M02/M03 A3011 RMK AO2 T10211028 =
2018-01-17 16:27 METAR K1P1 172135Z AUTO 00000KT 1 3/4SM -SN OVC016 M02/M03 A3011 RMK AO2
                 T10201030 =
2018-01-17 16:07 METAR K1P1 172115Z AUTO 00000KT 1 3/4SM -SN OVC016 M02/M03 A3012 RMK AO2
                 T10161026 =
2018-01-17 15:55 METAR K1P1 172055Z AUTO 00000KT 2SM -SN SCT012 OVC020 M02/M03 A3012 RMK AO2
                 T10171027 =
2018-01-17 15:27 METAR K1P1 172035Z AUTO 00000KT 1 3/4SM -SN OVC015 M02/M03 A3013 RMK AO2 VIS 1
                 1/4V2 1/2 T10201031 =
2018-01-17 15:07 METAR K1P1 172015Z AUTO 00000KT 1 3/4SM -SN OVC021 M02/M03 A3013 RMK AO2
                 T10201033 =
2018-01-17 14:55 METAR K1P1 171955Z AUTO 00000KT 2SM -SN OVC019 M02/M03 A3014 RMK AO2 T10201035 =
2018-01-17 14:27 METAR K1P1 171935Z AUTO 00000KT 2SM -SN OVC015 M02/M03 A3015 RMK AO2 T10191035 =
2018-01-17 14:08 METAR K1P1 171915Z AUTO 00000KT 1 1/2SM -SN OVC015 M02/M03 A3015 RMK AO2
                 T10201034 =
2018-01-17 13:55 METAR K1P1 171855Z AUTO 00000KT 2 1/2SM -SN SCT015 OVC024 M02/M03 A3016 RMK AO2
                 T10201034 =
2018-01-17 13:27 METAR K1P1 171835Z AUTO 00000KT 1 3/4SM -SN OVC015 M02/M04 A3017 RMK AO2
                 T10251038 =
2018-01-17 13:09 METAR K1P1 171815Z AUTO 00000KT 2SM -SN OVC015 M03/M04 A3018 RMK AO2 T10261040 =
2018-01-17 12:55 METAR K1P1 171755Z AUTO 00000KT 2SM -SN BKN017 OVC022 M03/M04 A3019 RMK AO2
                 60001 T10271042 11027 21055 =
2018-01-17 12:27 METAR K1P1 171735Z AUTO 00000KT 4SM -SN SCT024 SCT033 OVC046 M03/M04 A3021 RMK
                 AO2 T10291045 =
2018-01-17 12:07 METAR K1P1 171715Z AUTO 00000KT 3SM -SN SCT010 SCT015 OVC048 M03/M04 A3022 RMK
                 AO2 T10311045 =
2018-01-17 11:55 METAR K1P1 171655Z AUTO 00000KT 1SM -SN OVC010 M03/M05 A3024 RMK AO2 T10331046 =
2018-01-17 11:30 METAR K1P1 171635Z AUTO 00000KT 1 1/4SM -SN OVC012 M04/M05 A3025 RMK AO2
                 T10361047 =
2018-01-17 11:07 METAR K1P1 171615Z AUTO 00000KT 1 1/2SM -SN BKN010 OVC014 M04/M05 A3027 RMK AO2
                 T10381050 =
2018-01-17 10:55 METAR K1P1 171555Z AUTO 00000KT 3SM -SN OVC020 M04/M05 A3028 RMK AO2 T10391052 =
2018-01-17 10:32 METAR K1P1 171535Z AUTO 00000KT 5SM -SN OVC022 M04/M05 A3029 RMK AO2 T10391054 =
2018-01-17 10:07 METAR K1P1 171515Z AUTO 00000KT 10SM OVC022 M04/M05 A3029 RMK AO2 T10421053 =
2018-01-17 09:55 METAR K1P1 171455Z AUTO 00000KT 7SM OVC022 M04/M06 A3030 RMK AO2 60001 T10451056
                 =
2018-01-17 09:27 METAR K1P1 171435Z AUTO 00000KT 2 1/2SM -SN BKN024 BKN030 OVC055 M05/M06 A3031
                 RMK AO2 T10471057 =
2018-01-17 09:07 METAR K1P1 171415Z AUTO 00000KT 2SM -SN BKN015 OVC024 M05/M06 A3030 RMK AO2
                 T10461056 =
2018-01-17 08:55 METAR K1P1 171355Z AUTO 00000KT 1 1/2SM -SN OVC015 M05/M05 A3031 RMK AO2 P0001
                 T10481055 =
2018-01-17 08:26 METAR K1P1 171335Z AUTO 00000KT 2SM -SN BKN013 OVC021 M05/M06 A3031 RMK AO2
                 P0001 T10521060 =
2018-01-17 08:07 METAR K1P1 171315Z AUTO 00000KT 1SM -SN OVC011 M05/M06 A3032 RMK AO2 P0001
                 T10551060 =
2018-01-17 07:55 METAR K1P1 171255Z AUTO 00000KT 1 1/4SM -SN OVC008 M05/M06 A3032 RMK AO2
                 T10551061 =
2018-01-17 07:27 METAR K1P1 171235Z AUTO 00000KT 1 1/2SM -SN BKN008 BKN012 OVC018 M05/M06 A3032
                 RMK AO2 T10551060 =
2018-01-17 07:07 METAR K1P1 171215Z AUTO 00000KT 2 1/2SM -SN BKN018 BKN024 OVC031 M05/M06 A3033
                 RMK AO2 T10541059 =
2018-01-17 06:55 METAR K1P1 171155Z AUTO 00000KT 2SM -SN BKN014 OVC031 M06/M06 A3034 RMK AO2
                 P0001 60004 70006 T10561061 11056 21060 =
2018-01-17 06:27 METAR K1P1 171135Z AUTO 00000KT 1 1/4SM -SN OVC014 M06/M06 A3034 RMK AO2 P0001
                 T10561062 =
2018-01-17 06:06 METAR K1P1 171115Z AUTO 00000KT 1 1/4SM SN OVC012 M06/M06 A3034 RMK AO2
                 T10561062 =
2018-01-17 05:55 METAR K1P1 171055Z AUTO 00000KT 1SM SN OVC010 M06/M06 A3034 RMK AO2 P0001
                 T10561062 =
2018-01-17 05:27 METAR K1P1 171035Z AUTO 00000KT 1 1/4SM SN OVC008 M06/M06 A3034 RMK AO2 P0001
                 T10561062 =
2018-01-17 05:07 METAR K1P1 171015Z AUTO 00000KT 1 1/2SM -SN OVC008 M06/M06 A3034 RMK AO2
                 T10571063 =
2018-01-17 04:55 METAR K1P1 170955Z AUTO 00000KT 1 3/4SM -SN OVC011 M06/M06 A3034 RMK AO2 P0001
                 T10581065 =
2018-01-17 04:27 METAR K1P1 170935Z AUTO 00000KT 1 1/4SM -SN OVC013 M06/M06 A3034 RMK AO2
                 T10571062 =
2018-01-17 04:06 METAR K1P1 170915Z AUTO 00000KT 1 1/2SM -SN OVC015 M06/M06 A3034 RMK AO2
                 T10581065 =
2018-01-17 03:55 METAR K1P1 170855Z AUTO 00000KT 1 1/2SM -SN BKN017 OVC022 M06/M06 A3035 RMK AO2
                 60001 T10581064 =
2018-01-17 03:27 METAR K1P1 170835Z AUTO 00000KT 2SM -SN OVC012 M06/M06 A3035 RMK AO2 T10571063 =
2018-01-17 03:07 METAR K1P1 170815Z AUTO 00000KT 1 3/4SM -SN OVC012 M06/M06 A3036 RMK AO2
                 T10571063 =
2018-01-17 02:55 METAR K1P1 170755Z AUTO 00000KT 1 3/4SM -SN OVC012 M06/M06 A3036 RMK AO2 P0001
                 T10581064 =
2018-01-17 02:27 METAR K1P1 170735Z AUTO 00000KT 1 1/4SM -SN OVC012 M06/M06 A3036 RMK AO2 P0001
                 T10581065 =
2018-01-17 02:06 METAR K1P1 170715Z AUTO 00000KT 1 1/4SM -SN OVC012 M06/M06 A3036 RMK AO2
                 T10581065 =
2018-01-17 01:55 METAR K1P1 170655Z AUTO 00000KT 1SM SN OVC012 M06/M06 A3037 RMK AO2 T10581065 =
2018-01-17 01:28 METAR K1P1 170635Z AUTO 00000KT 1SM SN OVC012 M06/M06 A3037 RMK AO2 T10581065 =
2018-01-17 01:07 METAR K1P1 170615Z AUTO 00000KT 1 1/4SM SN OVC010 M06/M06 A3037 RMK AO2
                 T10581065 =
2018-01-17 00:55 METAR K1P1 170555Z AUTO 00000KT 1SM SN OVC010 M06/M06 A3037 RMK AO2 P0001 60002
                 T10601065 11059 21065 =
2018-01-17 00:26 METAR K1P1 170535Z AUTO 00000KT 1SM SN OVC010 M06/M07 A3038 RMK AO2 T10601066 =
2018-01-17 00:07 METAR K1P1 170515Z AUTO 00000KT 1SM SN OVC010 M06/M07 A3039 RMK AO2 T10591066 =
2018-01-16 23:55 METAR K1P1 170455Z AUTO 00000KT 1 1/4SM -SN OVC010 M06/M06 A3039 RMK AO2 P0001
                 T10601065 =
2018-01-16 23:27 METAR K1P1 170435Z AUTO 00000KT 1 1/4SM -SN OVC012 M06/M07 A3040 RMK AO2
                 T10601067 =
2018-01-16 23:07 METAR K1P1 170415Z AUTO 00000KT 1 3/4SM -SN OVC012 M06/M07 A3040 RMK AO2
                 T10611068 =
2018-01-16 22:55 METAR K1P1 170355Z AUTO 00000KT 1 1/2SM -SN OVC010 M06/M07 A3040 RMK AO2
                 T10601067 410391158 =
2018-01-16 22:27 METAR K1P1 170335Z AUTO 00000KT 1 1/4SM -SN OVC010 M06/M07 A3041 RMK AO2
                 T10601067 =
2018-01-16 22:07 METAR K1P1 170315Z AUTO 00000KT 1 3/4SM -SN BKN010 OVC016 M06/M07 A3041 RMK AO2
                 T10611068 =
2018-01-16 21:55 METAR K1P1 170255Z AUTO 00000KT 3SM -SN BKN022 OVC029 M06/M07 A3041 RMK AO2
                 T10611069 =
2018-01-16 21:27 METAR K1P1 170235Z AUTO 00000KT 4SM -SN BKN031 OVC037 M06/M07 A3041 RMK AO2
                 T10621070 =
2018-01-16 21:07 METAR K1P1 170215Z AUTO 00000KT 5SM -SN BKN039 BKN048 OVC060 M06/M07 A3042 RMK
                 AO2 T10621070 =
2018-01-16 20:55 METAR K1P1 170155Z AUTO 00000KT 7SM -SN SCT047 OVC060 M06/M07 A3042 RMK AO2
                 T10631070 =
2018-01-16 20:27 METAR K1P1 170135Z AUTO 00000KT 4SM -SN SCT015 BKN024 OVC060 M06/M07 A3041 RMK
                 AO2 T10621070 =
2018-01-16 20:06 METAR K1P1 170115Z AUTO 00000KT 4SM -SN BKN024 BKN035 OVC044 M06/M07 A3042 RMK
                 AO2 T10611070 =
2018-01-16 19:55 METAR K1P1 170055Z AUTO 00000KT 7SM SCT040 BKN060 OVC075 M06/M07 A3042 RMK AO2
                 T10651071 =
2018-01-16 19:27 METAR K1P1 170035Z AUTO 00000KT 7SM SCT027 BKN065 OVC075 M06/M07 A3041 RMK AO2
                 T10621070 =

Support USWX by starting your Amazon purchase here.